createdAt,value
2018-10-12T00:00:32.246Z,60.81
2018-10-12T00:01:32.161Z,60.85
2018-10-12T00:02:32.274Z,60.81
2018-10-12T00:03:31.953Z,60.85
2018-10-12T00:04:32.304Z,60.78
2018-10-12T00:05:32.188Z,60.84
2018-10-12T00:06:32.329Z,60.82
2018-10-12T00:07:32.440Z,60.82
2018-10-12T00:08:32.232Z,60.89
2018-10-12T00:09:32.047Z,60.83
2018-10-12T00:10:32.251Z,60.87
2018-10-12T00:11:32.039Z,60.81
2018-10-12T00:12:32.597Z,60.79
2018-10-12T00:13:32.187Z,60.83
2018-10-12T00:14:32.149Z,60.86
2018-10-12T00:15:32.115Z,60.83
2018-10-12T00:16:32.308Z,60.85
2018-10-12T00:17:32.254Z,60.89
2018-10-12T00:18:31.906Z,60.76
2018-10-12T00:19:32.934Z,60.87
2018-10-12T00:20:32.076Z,60.79
2018-10-12T00:21:32.355Z,60.88
2018-10-12T00:22:32.229Z,60.89
2018-10-12T00:23:32.260Z,60.84
2018-10-12T00:24:32.127Z,60.8
2018-10-12T00:25:31.992Z,60.83
2018-10-12T00:26:31.880Z,60.87
2018-10-12T00:27:32.227Z,60.88
2018-10-12T00:28:32.001Z,60.86
2018-10-12T00:29:32.034Z,60.8
2018-10-12T00:30:32.065Z,60.85
2018-10-12T00:31:32.100Z,60.79
2018-10-12T00:32:32.056Z,60.77
2018-10-12T00:33:32.624Z,60.79
2018-10-12T00:34:32.123Z,60.83
2018-10-12T00:35:32.024Z,60.84
2018-10-12T00:36:32.611Z,60.81
2018-10-12T00:37:32.172Z,60.84
2018-10-12T00:38:31.958Z,60.87
2018-10-12T00:39:32.045Z,60.88
2018-10-12T00:40:32.554Z,60.88
2018-10-12T00:41:32.982Z,60.87
2018-10-12T00:42:32.083Z,60.8
2018-10-12T00:43:32.144Z,60.85
2018-10-12T00:44:32.311Z,60.89
2018-10-12T00:45:31.954Z,60.85
2018-10-12T00:46:32.064Z,60.79
2018-10-12T00:47:32.138Z,60.78
2018-10-12T00:48:31.940Z,60.85
2018-10-12T00:49:31.982Z,60.83
2018-10-12T00:50:32.183Z,60.77
2018-10-12T00:51:32.296Z,60.79
2018-10-12T00:52:32.027Z,60.81
2018-10-12T00:53:32.012Z,60.86
2018-10-12T00:54:32.298Z,60.88
2018-10-12T00:55:32.158Z,60.81
2018-10-12T00:56:32.157Z,60.83
2018-10-12T00:57:31.958Z,60.84
2018-10-12T00:58:32.036Z,60.84
2018-10-12T00:59:33.009Z,60.85
2018-10-12T01:00:32.069Z,60.78
2018-10-12T01:01:31.923Z,60.79
2018-10-12T01:02:32.054Z,60.77
2018-10-12T01:03:32.029Z,60.82
2018-10-12T01:04:31.908Z,60.82
2018-10-12T01:05:32.210Z,60.88
2018-10-12T01:06:32.107Z,60.84
2018-10-12T01:07:31.966Z,60.82
2018-10-12T01:08:31.976Z,60.82
2018-10-12T01:09:32.143Z,60.87
2018-10-12T01:10:32.017Z,60.84
2018-10-12T01:11:32.000Z,60.85
2018-10-12T01:12:32.127Z,60.89
2018-10-12T01:13:32.124Z,60.78
2018-10-12T01:14:31.934Z,60.84
2018-10-12T01:15:32.158Z,60.85
2018-10-12T01:16:32.097Z,60.78
2018-10-12T01:17:32.105Z,60.82
2018-10-12T01:18:32.077Z,60.72
2018-10-12T01:19:32.020Z,60.75
2018-10-12T01:20:32.334Z,60.85
2018-10-12T01:21:31.992Z,60.86
2018-10-12T01:22:32.568Z,60.88
2018-10-12T01:23:32.463Z,60.83
2018-10-12T01:24:31.949Z,60.79
2018-10-12T01:25:32.165Z,60.83
2018-10-12T01:26:32.075Z,60.85
2018-10-12T01:27:32.097Z,60.77
2018-10-12T01:28:32.219Z,60.86
2018-10-12T01:29:32.095Z,60.84
2018-10-12T01:30:31.949Z,60.83
2018-10-12T01:31:31.985Z,60.81
2018-10-12T01:32:31.846Z,60.82
2018-10-12T01:33:32.316Z,60.8
2018-10-12T01:34:32.045Z,60.81
2018-10-12T01:35:32.201Z,60.78
2018-10-12T01:36:32.100Z,60.86
2018-10-12T01:37:32.290Z,60.78
2018-10-12T01:38:32.067Z,60.95
2018-10-12T01:39:32.172Z,60.84
2018-10-12T01:40:32.221Z,60.91
2018-10-12T01:41:32.149Z,60.87
2018-10-12T01:42:32.126Z,60.86
2018-10-12T01:43:32.102Z,60.85
2018-10-12T01:44:32.339Z,60.89
2018-10-12T01:45:32.384Z,60.86
2018-10-12T01:46:32.009Z,60.86
2018-10-12T01:47:32.098Z,60.85
2018-10-12T01:48:31.977Z,60.88
2018-10-12T01:49:32.154Z,60.87
2018-10-12T01:50:31.950Z,60.86
2018-10-12T01:51:31.996Z,60.91
2018-10-12T01:52:32.098Z,60.81
2018-10-12T01:53:31.890Z,60.83
2018-10-12T01:54:32.003Z,60.88
2018-10-12T01:55:32.208Z,60.87
2018-10-12T01:56:32.228Z,60.91
2018-10-12T01:57:32.064Z,60.9
2018-10-12T01:58:32.311Z,60.92
2018-10-12T01:59:32.216Z,60.88
2018-10-12T02:00:32.016Z,60.93
2018-10-12T02:01:32.070Z,60.88
2018-10-12T02:02:32.364Z,60.87
2018-10-12T02:03:31.900Z,60.88
2018-10-12T02:04:32.004Z,60.79
2018-10-12T02:05:32.030Z,60.89
2018-10-12T02:06:32.132Z,60.88
2018-10-12T02:07:31.952Z,60.82
2018-10-12T02:08:32.274Z,60.88
2018-10-12T02:09:31.905Z,60.8
2018-10-12T02:10:32.122Z,60.85
2018-10-12T02:11:32.262Z,60.85
2018-10-12T02:12:32.125Z,60.86
2018-10-12T02:13:32.029Z,60.89
2018-10-12T02:14:32.156Z,60.92
2018-10-12T02:15:32.352Z,60.85
2018-10-12T02:16:32.353Z,60.9
2018-10-12T02:17:32.243Z,60.82
2018-10-12T02:18:32.371Z,60.86
2018-10-12T02:19:31.943Z,60.84
2018-10-12T02:20:31.946Z,60.88
2018-10-12T02:21:32.210Z,60.83
2018-10-12T02:22:32.298Z,60.93
2018-10-12T02:23:32.118Z,60.92
2018-10-12T02:24:32.297Z,60.83
2018-10-12T02:25:32.102Z,60.83
2018-10-12T02:26:31.817Z,60.87
2018-10-12T02:27:32.109Z,60.89
2018-10-12T02:28:32.033Z,60.86
2018-10-12T02:29:32.153Z,60.82
2018-10-12T02:30:31.975Z,60.88
2018-10-12T02:31:32.047Z,60.87
2018-10-12T02:32:31.933Z,60.87
2018-10-12T02:33:31.937Z,60.9
2018-10-12T02:34:32.016Z,60.87
2018-10-12T02:35:31.897Z,60.8
2018-10-12T02:36:31.886Z,60.91
2018-10-12T02:37:31.905Z,60.84
2018-10-12T02:38:32.005Z,60.82
2018-10-12T02:39:32.168Z,60.9
2018-10-12T02:40:31.849Z,60.89
2018-10-12T02:41:32.027Z,60.83
2018-10-12T02:42:32.101Z,60.82
2018-10-12T02:43:32.416Z,60.9
2018-10-12T02:44:32.027Z,60.84
2018-10-12T02:45:32.333Z,60.83
2018-10-12T02:46:32.228Z,60.9
2018-10-12T02:47:31.879Z,60.78
2018-10-12T02:48:32.061Z,60.89
2018-10-12T02:49:32.063Z,60.83
2018-10-12T02:50:31.867Z,60.81
2018-10-12T02:51:32.260Z,60.82
2018-10-12T02:52:32.195Z,60.82
2018-10-12T02:53:31.883Z,60.84
2018-10-12T02:54:32.186Z,60.89
2018-10-12T02:55:32.185Z,60.9
2018-10-12T02:56:31.861Z,60.85
2018-10-12T02:57:32.210Z,60.94
2018-10-12T02:58:31.998Z,60.84
2018-10-12T02:59:32.132Z,60.81
2018-10-12T03:00:32.025Z,60.77
2018-10-12T03:01:32.053Z,60.84
2018-10-12T03:02:31.988Z,60.89
2018-10-12T03:03:33.219Z,60.87
2018-10-12T03:04:32.077Z,60.87
2018-10-12T03:05:31.901Z,60.88
2018-10-12T03:06:32.108Z,60.79
2018-10-12T03:07:31.894Z,60.83
2018-10-12T03:08:32.019Z,60.87
2018-10-12T03:09:32.053Z,60.8
2018-10-12T03:10:32.075Z,60.85
2018-10-12T03:11:32.202Z,60.85
2018-10-12T03:12:32.007Z,60.89
2018-10-12T03:13:32.487Z,60.81
2018-10-12T03:14:32.146Z,60.81
2018-10-12T03:15:32.046Z,60.8
2018-10-12T03:16:32.099Z,60.78
2018-10-12T03:17:31.952Z,60.89
2018-10-12T03:18:32.031Z,60.89
2018-10-12T03:19:31.994Z,60.87
2018-10-12T03:20:31.971Z,60.84
2018-10-12T03:21:32.022Z,60.85
2018-10-12T03:22:32.423Z,60.85
2018-10-12T03:23:31.879Z,60.79
2018-10-12T03:24:32.302Z,60.84
2018-10-12T03:25:32.047Z,60.85
2018-10-12T03:26:32.328Z,60.82
2018-10-12T03:27:32.091Z,60.8
2018-10-12T03:28:32.005Z,60.83
2018-10-12T03:29:31.994Z,60.89
2018-10-12T03:30:32.218Z,60.85
2018-10-12T03:31:32.288Z,60.83
2018-10-12T03:32:31.933Z,60.92
2018-10-12T03:33:32.022Z,60.83
2018-10-12T03:34:32.280Z,60.87
2018-10-12T03:35:32.179Z,60.85
2018-10-12T03:36:32.023Z,60.84
2018-10-12T03:37:32.226Z,60.82
2018-10-12T03:38:31.908Z,60.88
2018-10-12T03:39:32.836Z,60.83
2018-10-12T03:40:32.217Z,60.85
2018-10-12T03:41:31.946Z,60.91
2018-10-12T03:42:31.941Z,60.82
2018-10-12T03:43:32.082Z,60.86
2018-10-12T03:44:32.253Z,60.84
2018-10-12T03:45:32.230Z,60.87
2018-10-12T03:46:31.979Z,60.85
2018-10-12T03:47:31.818Z,60.87
2018-10-12T03:48:32.138Z,60.86
2018-10-12T03:49:32.193Z,60.89
2018-10-12T03:50:32.087Z,60.89
2018-10-12T03:51:31.831Z,60.84
2018-10-12T03:52:31.896Z,60.93
2018-10-12T03:53:32.069Z,60.87
2018-10-12T03:54:31.844Z,60.78
2018-10-12T03:55:31.876Z,60.73
2018-10-12T03:56:32.126Z,60.83
2018-10-12T03:57:32.236Z,60.85
2018-10-12T03:58:31.814Z,60.81
2018-10-12T03:59:31.943Z,60.78
2018-10-12T04:00:31.811Z,60.75
2018-10-12T04:01:31.835Z,60.84
2018-10-12T04:02:32.132Z,60.93
2018-10-12T04:03:32.153Z,60.84
2018-10-12T04:04:32.295Z,60.79
2018-10-12T04:05:31.995Z,60.75
2018-10-12T04:06:31.988Z,60.8
2018-10-12T04:07:32.049Z,60.82
2018-10-12T04:08:31.839Z,60.88
2018-10-12T04:09:31.852Z,60.79
2018-10-12T04:10:31.954Z,60.85
2018-10-12T04:11:32.024Z,60.83
2018-10-12T04:12:32.398Z,60.81
2018-10-12T04:13:31.944Z,60.87
2018-10-12T04:14:32.084Z,60.9
2018-10-12T04:15:31.798Z,60.87
2018-10-12T04:16:32.494Z,60.86
2018-10-12T04:17:31.858Z,60.88
2018-10-12T04:18:31.998Z,60.84
2018-10-12T04:19:31.766Z,60.75
2018-10-12T04:20:32.055Z,60.82
2018-10-12T04:21:31.834Z,60.8
2018-10-12T04:22:31.907Z,60.79
2018-10-12T04:23:31.989Z,60.73
2018-10-12T04:24:32.190Z,60.77
2018-10-12T04:25:32.075Z,60.84
2018-10-12T04:26:32.764Z,60.75
2018-10-12T04:27:31.883Z,60.85
2018-10-12T04:28:31.947Z,60.82
2018-10-12T04:29:32.371Z,60.75
2018-10-12T04:30:32.109Z,60.88
2018-10-12T04:31:31.947Z,60.7
2018-10-12T04:32:32.000Z,60.78
2018-10-12T04:33:32.053Z,60.74
2018-10-12T04:34:31.914Z,60.79
2018-10-12T04:35:32.317Z,60.86
2018-10-12T04:36:32.113Z,60.76
2018-10-12T04:37:31.770Z,60.75
2018-10-12T04:38:32.223Z,60.76
2018-10-12T04:39:31.897Z,60.84
2018-10-12T04:40:31.961Z,60.85
2018-10-12T04:41:32.038Z,60.77
2018-10-12T04:42:31.944Z,60.83
2018-10-12T04:43:31.946Z,60.82
2018-10-12T04:44:32.095Z,60.8
2018-10-12T04:45:31.955Z,60.78
2018-10-12T04:46:32.142Z,60.83
2018-10-12T04:47:31.858Z,60.77
2018-10-12T04:48:31.955Z,60.86
2018-10-12T04:49:32.285Z,60.81
2018-10-12T04:50:31.933Z,60.74
2018-10-12T04:51:32.341Z,60.78
2018-10-12T04:52:32.026Z,60.74
2018-10-12T04:53:31.779Z,60.73
2018-10-12T04:54:31.946Z,60.68
2018-10-12T04:55:31.973Z,60.84
2018-10-12T04:56:31.843Z,60.86
2018-10-12T04:57:31.880Z,60.67
2018-10-12T04:58:32.004Z,60.87
2018-10-12T04:59:32.168Z,60.77
2018-10-12T05:00:32.404Z,60.75
2018-10-12T05:01:31.856Z,60.73
2018-10-12T05:02:31.962Z,60.74
2018-10-12T05:03:32.034Z,60.76
2018-10-12T05:04:31.887Z,60.67
2018-10-12T05:05:31.896Z,60.74
2018-10-12T05:06:31.893Z,60.77
2018-10-12T05:07:32.124Z,60.78
2018-10-12T05:08:31.932Z,60.8
2018-10-12T05:09:32.146Z,60.7
2018-10-12T05:10:32.251Z,60.74
2018-10-12T05:11:32.248Z,60.77
2018-10-12T05:12:31.844Z,60.71
2018-10-12T05:13:32.065Z,60.77
2018-10-12T05:14:32.423Z,60.73
2018-10-12T05:15:32.131Z,60.71
2018-10-12T05:16:31.991Z,60.77
2018-10-12T05:17:31.951Z,60.75
2018-10-12T05:18:31.818Z,60.75
2018-10-12T05:19:32.247Z,60.77
2018-10-12T05:20:32.048Z,60.75
2018-10-12T05:21:32.147Z,60.77
2018-10-12T05:22:31.839Z,60.76
2018-10-12T05:23:32.174Z,60.69
2018-10-12T05:24:32.066Z,60.75
2018-10-12T05:25:31.937Z,60.76
2018-10-12T05:26:31.974Z,60.73
2018-10-12T05:27:31.967Z,60.82
2018-10-12T05:28:32.024Z,60.75
2018-10-12T05:29:32.055Z,60.78
2018-10-12T05:30:32.088Z,60.7
2018-10-12T05:31:31.837Z,60.7
2018-10-12T05:32:32.045Z,60.69
2018-10-12T05:33:31.999Z,60.7
2018-10-12T05:34:31.936Z,60.73
2018-10-12T05:35:32.434Z,60.77
2018-10-12T05:36:31.945Z,60.8
2018-10-12T05:37:31.950Z,60.74
2018-10-12T05:38:31.909Z,60.74
2018-10-12T05:39:31.940Z,60.64
2018-10-12T05:40:31.929Z,60.67
2018-10-12T05:41:31.900Z,60.69
2018-10-12T05:42:32.001Z,60.76
2018-10-12T05:43:32.629Z,60.7
2018-10-12T05:44:32.126Z,60.67
2018-10-12T05:45:32.002Z,60.76
2018-10-12T05:46:31.881Z,60.71
2018-10-12T05:47:32.020Z,60.73
2018-10-12T05:48:32.216Z,60.66
2018-10-12T05:49:32.317Z,60.69
2018-10-12T05:50:32.021Z,60.69
2018-10-12T05:51:31.887Z,60.68
2018-10-12T05:52:31.970Z,60.69
2018-10-12T05:53:32.184Z,60.73
2018-10-12T05:54:31.838Z,60.67
2018-10-12T05:55:31.843Z,60.73
2018-10-12T05:56:32.003Z,60.71
2018-10-12T05:57:32.264Z,60.75
2018-10-12T05:58:31.761Z,60.68
2018-10-12T05:59:31.946Z,60.66
2018-10-12T06:00:32.055Z,60.7
2018-10-12T06:01:31.859Z,60.67
2018-10-12T06:02:31.950Z,60.66
2018-10-12T06:03:31.994Z,60.7
2018-10-12T06:04:31.914Z,60.7
2018-10-12T06:05:31.925Z,60.7
2018-10-12T06:06:32.023Z,60.66
2018-10-12T06:07:32.112Z,60.66
2018-10-12T06:08:32.282Z,60.69
2018-10-12T06:09:32.614Z,60.63
2018-10-12T06:10:31.963Z,60.67
2018-10-12T06:11:32.758Z,60.73
2018-10-12T06:12:32.241Z,60.66
2018-10-12T06:13:32.001Z,60.66
2018-10-12T06:14:32.028Z,60.62
2018-10-12T06:15:32.463Z,60.71
2018-10-12T06:16:32.271Z,60.66
2018-10-12T06:17:31.896Z,60.68
2018-10-12T06:18:32.010Z,60.76
2018-10-12T06:19:32.257Z,60.78
2018-10-12T06:20:32.075Z,60.75
2018-10-12T06:21:32.074Z,60.62
2018-10-12T06:22:32.194Z,60.68
2018-10-12T06:23:31.810Z,60.63
2018-10-12T06:24:32.301Z,60.67
2018-10-12T06:25:32.441Z,60.73
2018-10-12T06:26:32.186Z,60.62
2018-10-12T06:27:32.058Z,60.67
2018-10-12T06:28:32.128Z,60.67
2018-10-12T06:29:32.288Z,60.68
2018-10-12T06:30:31.868Z,60.68
2018-10-12T06:31:32.408Z,60.74
2018-10-12T06:32:32.129Z,60.77
2018-10-12T06:33:32.000Z,60.75
2018-10-12T06:34:32.023Z,60.68
2018-10-12T06:35:32.132Z,60.65
2018-10-12T06:36:32.243Z,60.71
2018-10-12T06:37:31.893Z,60.7
2018-10-12T06:38:32.098Z,60.72
2018-10-12T06:39:31.977Z,60.69
2018-10-12T06:40:32.068Z,60.62
2018-10-12T06:41:32.375Z,60.62
2018-10-12T06:42:32.041Z,60.61
2018-10-12T06:43:31.851Z,60.59
2018-10-12T06:44:32.050Z,60.68
2018-10-12T06:45:32.207Z,60.67
2018-10-12T06:46:32.215Z,60.6
2018-10-12T06:47:32.040Z,60.68
2018-10-12T06:48:32.055Z,60.76
2018-10-12T06:49:31.795Z,60.76
2018-10-12T06:50:32.063Z,60.74
2018-10-12T06:51:32.295Z,60.7
2018-10-12T06:52:31.778Z,60.74
2018-10-12T06:53:32.095Z,60.73
2018-10-12T06:54:32.265Z,60.68
2018-10-12T06:55:31.961Z,60.69
2018-10-12T06:56:31.978Z,60.73
2018-10-12T06:57:32.054Z,60.62
2018-10-12T06:58:31.947Z,60.67
2018-10-12T06:59:32.002Z,60.6
2018-10-12T07:00:31.772Z,60.69
2018-10-12T07:01:31.860Z,60.69
2018-10-12T07:02:31.885Z,60.63
2018-10-12T07:03:31.892Z,60.68
2018-10-12T07:04:32.003Z,60.75
2018-10-12T07:05:31.988Z,60.68
2018-10-12T07:06:32.025Z,60.68
2018-10-12T07:07:32.309Z,60.69
2018-10-12T07:08:31.916Z,60.71
2018-10-12T07:09:31.999Z,60.7
2018-10-12T07:10:31.974Z,60.68
2018-10-12T07:11:31.984Z,60.66
2018-10-12T07:12:31.935Z,60.69
2018-10-12T07:13:31.814Z,60.69
2018-10-12T07:14:31.794Z,60.68
2018-10-12T07:15:31.803Z,60.68
2018-10-12T07:16:31.827Z,60.63
2018-10-12T07:17:32.028Z,60.68
2018-10-12T07:18:31.829Z,60.57
2018-10-12T07:19:32.397Z,60.65
2018-10-12T07:20:32.194Z,60.58
2018-10-12T07:21:32.027Z,60.7
2018-10-12T07:22:32.107Z,60.75
2018-10-12T07:23:31.951Z,60.73
2018-10-12T07:24:31.819Z,60.7
2018-10-12T07:25:32.327Z,60.63
2018-10-12T07:26:31.835Z,60.67
2018-10-12T07:27:31.756Z,60.62
2018-10-12T07:28:31.947Z,60.57
2018-10-12T07:29:31.978Z,60.55
2018-10-12T07:30:32.223Z,60.61
2018-10-12T07:31:32.244Z,60.84
2018-10-12T07:32:32.067Z,61.49
2018-10-12T07:33:32.359Z,61.97
2018-10-12T07:34:32.229Z,62.17
2018-10-12T07:35:32.200Z,62.45
2018-10-12T07:36:32.873Z,62.52
2018-10-12T07:37:31.986Z,62.79
2018-10-12T07:38:32.013Z,62.9
2018-10-12T07:39:32.131Z,63.04
2018-10-12T07:40:31.750Z,62.81
2018-10-12T07:41:31.827Z,62.47
2018-10-12T07:42:32.125Z,62.3
2018-10-12T07:43:32.007Z,62.19
2018-10-12T07:44:32.326Z,62.2
2018-10-12T07:45:32.016Z,62.06
2018-10-12T07:46:31.995Z,62.07
2018-10-12T07:47:32.167Z,62.04
2018-10-12T07:48:31.989Z,61.94
2018-10-12T07:49:31.766Z,61.99
2018-10-12T07:50:31.851Z,62.2
2018-10-12T07:51:31.956Z,62.08
2018-10-12T07:52:31.798Z,62.02
2018-10-12T07:53:32.023Z,62.03
2018-10-12T07:54:31.968Z,62.01
2018-10-12T07:55:31.802Z,62.1
2018-10-12T07:56:32.134Z,62.09
2018-10-12T07:57:31.953Z,61.96
2018-10-12T07:58:32.204Z,61.91
2018-10-12T07:59:32.219Z,61.87
2018-10-12T08:00:32.560Z,61.74
2018-10-12T08:01:32.002Z,61.93
2018-10-12T08:02:31.935Z,61.84
2018-10-12T08:03:32.411Z,61.89
2018-10-12T08:04:31.780Z,61.63
2018-10-12T08:05:32.048Z,61.63
2018-10-12T08:06:32.152Z,61.69
2018-10-12T08:07:31.905Z,61.66
2018-10-12T08:08:32.134Z,61.6
2018-10-12T08:09:32.297Z,61.56
2018-10-12T08:10:31.724Z,61.59
2018-10-12T08:11:32.048Z,61.51
2018-10-12T08:12:32.256Z,61.5
2018-10-12T08:13:32.127Z,61.61
2018-10-12T08:14:32.304Z,61.64
2018-10-12T08:15:31.843Z,61.5
2018-10-12T08:16:31.948Z,61.66
2018-10-12T08:17:31.942Z,61.41
2018-10-12T08:18:31.908Z,61.55
2018-10-12T08:19:31.927Z,61.44
2018-10-12T08:20:32.236Z,61.46
2018-10-12T08:21:31.876Z,61.51
2018-10-12T08:22:32.253Z,61.38
2018-10-12T08:23:31.957Z,61.49
2018-10-12T08:24:31.956Z,61.41
2018-10-12T08:25:31.752Z,61.5
2018-10-12T08:26:31.974Z,61.38
2018-10-12T08:27:31.769Z,61.39
2018-10-12T08:28:31.843Z,61.57
2018-10-12T08:29:31.951Z,61.42
2018-10-12T08:30:31.829Z,61.45
2018-10-12T08:31:32.059Z,61.4
2018-10-12T08:32:31.993Z,61.38
2018-10-12T08:33:31.919Z,61.44
2018-10-12T08:34:31.921Z,61.34
2018-10-12T08:35:32.076Z,61.33
2018-10-12T08:36:32.409Z,61.33
2018-10-12T08:37:31.718Z,61.34
2018-10-12T08:38:31.796Z,61.26
2018-10-12T08:39:31.961Z,61.34
2018-10-12T08:40:31.844Z,61.4
2018-10-12T08:41:31.952Z,61.41
2018-10-12T08:42:31.774Z,61.29
2018-10-12T08:43:31.982Z,61.37
2018-10-12T08:44:31.989Z,61.29
2018-10-12T08:45:31.776Z,61.19
2018-10-12T08:46:31.974Z,61.29
2018-10-12T08:47:32.303Z,61.36
2018-10-12T08:48:31.889Z,61.2
2018-10-12T08:49:32.247Z,61.33
2018-10-12T08:50:32.150Z,61.21
2018-10-12T08:51:31.977Z,61.29
2018-10-12T08:52:31.884Z,61.28
2018-10-12T08:53:32.185Z,61.33
2018-10-12T08:54:31.974Z,61.27
2018-10-12T08:55:32.204Z,61.28
2018-10-12T08:56:31.801Z,61.27
2018-10-12T08:57:32.014Z,61.2
2018-10-12T08:58:32.302Z,61.17
2018-10-12T08:59:31.969Z,61.22
2018-10-12T09:00:31.974Z,61.18
2018-10-12T09:01:31.966Z,61.2
2018-10-12T09:02:31.808Z,61.18
2018-10-12T09:03:32.543Z,61.13
2018-10-12T09:04:32.028Z,61.12
2018-10-12T09:05:32.038Z,61.15
2018-10-12T09:06:31.967Z,61.21
2018-10-12T09:07:32.027Z,61.15
2018-10-12T09:08:32.084Z,61.15
2018-10-12T09:09:32.054Z,61.12
2018-10-12T09:10:31.903Z,61.19
2018-10-12T09:11:32.867Z,61.14
2018-10-12T09:12:31.873Z,61.19
2018-10-12T09:13:31.857Z,61.12
2018-10-12T09:14:32.034Z,61.17
2018-10-12T09:15:32.392Z,61.14
2018-10-12T09:16:31.973Z,61.15
2018-10-12T09:17:31.893Z,61.19
2018-10-12T09:18:31.952Z,61.08
2018-10-12T09:19:31.927Z,61.13
2018-10-12T09:20:32.889Z,61.14
2018-10-12T09:21:31.968Z,61.12
2018-10-12T09:22:31.946Z,61
2018-10-12T09:23:31.733Z,61.06
2018-10-12T09:24:31.718Z,61.07
2018-10-12T09:25:32.028Z,61.04
2018-10-12T09:26:31.867Z,61.07
2018-10-12T09:27:32.195Z,61.12
2018-10-12T09:28:33.099Z,61.05
2018-10-12T09:29:31.897Z,61.15
2018-10-12T09:30:31.717Z,61.13
2018-10-12T09:31:32.114Z,61.05
2018-10-12T09:32:32.094Z,60.97
2018-10-12T09:33:32.177Z,61.08
2018-10-12T09:34:32.134Z,61.09
2018-10-12T09:35:32.021Z,61
2018-10-12T09:36:32.306Z,61.06
2018-10-12T09:37:32.149Z,60.99
2018-10-12T09:38:32.158Z,61.05
2018-10-12T09:39:32.078Z,61.02
2018-10-12T09:40:31.723Z,61
2018-10-12T09:41:31.870Z,61.01
2018-10-12T09:42:31.852Z,61.06
2018-10-12T09:43:32.297Z,60.94
2018-10-12T09:44:32.291Z,60.93
2018-10-12T09:45:31.773Z,61
2018-10-12T09:46:32.014Z,61.02
2018-10-12T09:47:32.143Z,60.96
2018-10-12T09:48:32.039Z,61.06
2018-10-12T09:49:32.037Z,60.94
2018-10-12T09:50:32.404Z,60.94
2018-10-12T09:51:31.851Z,60.96
2018-10-12T09:52:31.888Z,60.9
2018-10-12T09:53:31.877Z,61.03
2018-10-12T09:54:32.358Z,60.91
2018-10-12T09:55:31.964Z,60.98
2018-10-12T09:56:32.001Z,60.99
2018-10-12T09:57:32.023Z,60.94
2018-10-12T09:58:31.881Z,60.98
2018-10-12T09:59:31.697Z,60.97
2018-10-12T10:00:31.813Z,60.92
2018-10-12T10:01:31.996Z,60.92
2018-10-12T10:02:32.322Z,61.05
2018-10-12T10:03:31.791Z,60.96
2018-10-12T10:04:31.923Z,60.94
2018-10-12T10:05:32.390Z,60.99
2018-10-12T10:06:32.043Z,60.96
2018-10-12T10:07:32.647Z,60.92
2018-10-12T10:08:32.954Z,60.95
2018-10-12T10:09:31.891Z,60.92
2018-10-12T10:10:32.198Z,60.92
2018-10-12T10:11:32.172Z,60.96
2018-10-12T10:12:32.330Z,60.91
2018-10-12T10:13:32.063Z,60.92
2018-10-12T10:14:31.824Z,60.99
2018-10-12T10:15:32.102Z,60.96
2018-10-12T10:16:32.026Z,61
2018-10-12T10:17:31.802Z,60.94
2018-10-12T10:18:32.146Z,60.94
2018-10-12T10:19:32.372Z,60.92
2018-10-12T10:20:31.747Z,60.92
2018-10-12T10:21:32.243Z,60.94
2018-10-12T10:22:32.467Z,60.96
2018-10-12T10:23:31.849Z,60.87
2018-10-12T10:24:32.238Z,60.95
2018-10-12T10:25:32.132Z,60.98
2018-10-12T10:26:31.960Z,60.86
2018-10-12T10:27:32.207Z,60.93
2018-10-12T10:28:32.426Z,60.89
2018-10-12T10:29:32.098Z,60.92
2018-10-12T10:30:32.211Z,60.88
2018-10-12T10:31:32.116Z,60.96
2018-10-12T10:32:32.154Z,60.95
2018-10-12T10:33:31.916Z,60.87
2018-10-12T10:34:31.849Z,60.87
2018-10-12T10:35:32.051Z,60.89
2018-10-12T10:36:31.817Z,60.87
2018-10-12T10:37:31.944Z,60.92
2018-10-12T10:38:32.190Z,60.91
2018-10-12T10:39:32.002Z,60.87
2018-10-12T10:40:31.975Z,60.93
2018-10-12T10:41:31.972Z,60.87
2018-10-12T10:42:32.105Z,60.87
2018-10-12T10:43:32.018Z,60.88
2018-10-12T10:44:31.907Z,60.88
2018-10-12T10:45:32.027Z,60.85
2018-10-12T10:46:32.328Z,61.11
2018-10-12T10:47:31.736Z,61.39
2018-10-12T10:48:32.020Z,61.18
2018-10-12T10:49:31.974Z,61.05
2018-10-12T10:50:31.715Z,61.26
2018-10-12T10:51:32.059Z,61.21
2018-10-12T10:52:31.868Z,61.31
2018-10-12T10:53:31.936Z,61.49
2018-10-12T10:54:31.773Z,61.44
2018-10-12T10:55:32.408Z,61.49
2018-10-12T10:56:31.854Z,61.4
2018-10-12T10:57:31.838Z,61.41
2018-10-12T10:58:31.887Z,61.51
2018-10-12T10:59:31.822Z,61.53
2018-10-12T11:00:31.802Z,61.57
2018-10-12T11:01:31.805Z,61.54
2018-10-12T11:02:31.827Z,61.47
2018-10-12T11:03:32.162Z,61.5
2018-10-12T11:04:31.961Z,61.57
2018-10-12T11:05:31.833Z,61.56
2018-10-12T11:06:31.972Z,61.58
2018-10-12T11:07:31.774Z,61.59
2018-10-12T11:08:31.878Z,61.54
2018-10-12T11:09:31.858Z,61.51
2018-10-12T11:10:31.879Z,61.63
2018-10-12T11:11:32.107Z,61.59
2018-10-12T11:12:32.019Z,61.52
2018-10-12T11:13:31.872Z,61.49
2018-10-12T11:14:32.844Z,61.52
2018-10-12T11:15:32.211Z,61.54
2018-10-12T11:16:31.933Z,61.55
2018-10-12T11:17:31.678Z,61.53
2018-10-12T11:18:31.987Z,61.6
2018-10-12T11:19:32.006Z,61.33
2018-10-12T11:20:31.810Z,61.25
2018-10-12T11:21:31.776Z,61.2
2018-10-12T11:22:31.914Z,61.34
2018-10-12T11:23:31.952Z,61.44
2018-10-12T11:24:32.194Z,61.31
2018-10-12T11:25:31.850Z,61.24
2018-10-12T11:26:32.246Z,61.25
2018-10-12T11:27:31.861Z,61.18
2018-10-12T11:28:32.037Z,61.23
2018-10-12T11:29:32.009Z,61.22
2018-10-12T11:30:31.834Z,61.24
2018-10-12T11:31:32.263Z,61.24
2018-10-12T11:32:31.964Z,61.16
2018-10-12T11:33:32.087Z,61.22
2018-10-12T11:34:32.884Z,61.25
2018-10-12T11:35:32.026Z,61.26
2018-10-12T11:36:31.778Z,61.23
2018-10-12T11:37:32.176Z,61.16
2018-10-12T11:38:32.317Z,61.13
2018-10-12T11:39:32.099Z,61.19
2018-10-12T11:40:32.107Z,61.13
2018-10-12T11:41:31.995Z,61.19
2018-10-12T11:42:32.147Z,61.18
2018-10-12T11:43:31.793Z,61.15
2018-10-12T11:44:31.910Z,61.17
2018-10-12T11:45:32.978Z,61.12
2018-10-12T11:46:32.248Z,61.08
2018-10-12T11:47:31.745Z,61.2
2018-10-12T11:48:32.349Z,61.13
2018-10-12T11:49:31.650Z,61.15
2018-10-12T11:50:31.969Z,61.17
2018-10-12T11:51:31.923Z,61.15
2018-10-12T11:52:32.003Z,61.06
2018-10-12T11:53:32.000Z,61.14
2018-10-12T11:54:31.809Z,61.12
2018-10-12T11:55:31.664Z,61.14
2018-10-12T11:56:31.850Z,61.12
2018-10-12T11:57:32.170Z,61.16
2018-10-12T11:58:32.021Z,61.15
2018-10-12T11:59:32.475Z,61.11
2018-10-12T12:00:31.904Z,61.1
2018-10-12T12:01:31.809Z,61.08
2018-10-12T12:02:31.994Z,61.17
2018-10-12T12:03:31.953Z,61.21
2018-10-12T12:04:32.236Z,61.07
2018-10-12T12:05:32.355Z,61.09
2018-10-12T12:06:31.654Z,61.1
2018-10-12T12:07:31.713Z,61.16
2018-10-12T12:08:32.147Z,61.04
2018-10-12T12:09:32.031Z,61.14
2018-10-12T12:10:32.183Z,61.13
2018-10-12T12:11:31.775Z,61.05
2018-10-12T12:12:32.119Z,61.11
2018-10-12T12:13:31.940Z,61.1
2018-10-12T12:14:32.011Z,61.05
2018-10-12T12:15:32.056Z,61.05
2018-10-12T12:16:31.923Z,61.04
2018-10-12T12:17:32.067Z,61.09
2018-10-12T12:18:31.979Z,61.1
2018-10-12T12:19:32.566Z,60.97
2018-10-12T12:20:31.839Z,61.02
2018-10-12T12:21:32.354Z,61.1
2018-10-12T12:22:31.812Z,60.99
2018-10-12T12:23:31.930Z,60.99
2018-10-12T12:24:31.906Z,61.02
2018-10-12T12:25:32.010Z,61.02
2018-10-12T12:26:31.757Z,61.02
2018-10-12T12:27:32.023Z,61.01
2018-10-12T12:28:32.167Z,60.98
2018-10-12T12:29:31.961Z,61.02
2018-10-12T12:30:31.696Z,61
2018-10-12T12:31:31.854Z,60.97
2018-10-12T12:32:31.739Z,60.98
2018-10-12T12:33:31.807Z,61.03
2018-10-12T12:34:32.287Z,60.99
2018-10-12T12:35:33.048Z,61.05
2018-10-12T12:36:31.759Z,61.05
2018-10-12T12:37:31.840Z,61.05
2018-10-12T12:38:31.913Z,61.03
2018-10-12T12:39:31.942Z,61.03
2018-10-12T12:40:31.683Z,60.91
2018-10-12T12:41:31.895Z,60.97
2018-10-12T12:42:31.888Z,60.97
2018-10-12T12:43:31.724Z,60.9
2018-10-12T12:44:31.948Z,60.98
2018-10-12T12:45:31.865Z,60.97
2018-10-12T12:46:31.688Z,60.98
2018-10-12T12:47:32.362Z,60.95
2018-10-12T12:48:33.088Z,60.99
2018-10-12T12:49:32.542Z,60.96
2018-10-12T12:50:31.944Z,60.95
2018-10-12T12:51:31.831Z,60.95
2018-10-12T12:52:32.020Z,60.96
2018-10-12T12:53:31.685Z,60.97
2018-10-12T12:54:31.927Z,60.98
2018-10-12T12:55:31.817Z,60.99